x

Albenga (16122) Weather Station

5:50pm - Sun 22nd Jan 2017 All times are CET. 1 hours from GMT.

  • Wind
    20mph, 37mph gusts
  • Air Temp 48°f
  • Sea Pressure 1021mb
  • Albenga
  • Albenga

More Historic Weather Station data

Upgrade to MSW Pro to gain access to the past 30 days of data for over 8000 Wavebouys and Weather Stations around the globe.

Join Pro

Comparision Forecast

View Surf forecast
   
Sun 01/22 5:50pm 20 37 mph 1021mb 48f
4:50pm 21 35 mph 1021mb 48f
3:50pm 22 39 mph 1021mb 48f
2:50pm 20 37 mph 1021mb 48f
1:50pm 20 37 mph 1022mb 48f
12:50pm 22 36 mph 1022mb 50f
11:50am 22 40 mph 1023mb 50f
10:50am 24 45 mph 1023mb 50f
9:50am 29 55 mph 1022mb 50f
8:50am 24 47 mph 1022mb 50f
Sat 01/21 5:50pm 17 33 mph 1022mb 52f
4:50pm 17 39 mph 1022mb 52f
3:50pm 16 32 mph 1022mb 54f
2:50pm 21 36 mph 1022mb 54f
1:50pm 17 35 mph 1023mb 54f
12:50pm 6 18 mph 1024mb 54f
11:50am 9 25 mph 1025mb 52f
9:50am 14 27 mph 1026mb 50f
8:50am 16 33 mph 1026mb 48f
Fri 01/20 5:50pm 17 30 mph 1026mb 48f
4:50pm 22 35 mph 1026mb 48f
3:50pm 21 33 mph 1026mb 50f
2:50pm 14 27 mph 1026mb 52f
1:50pm 13 27 mph 1027mb 52f
12:50pm 14 25 mph 1027mb 50f
11:50am 15 28 mph 1028mb 50f
10:50am 14 27 mph 1028mb 48f
9:50am 9 29 mph 1028mb 46f
8:50am 12 25 mph 1028mb 43f
Thu 01/19 5:50pm 15 28 mph 1025mb 48f
4:50pm 15 27 mph 1025mb 48f
3:50pm 17 41 mph 1024mb 48f
2:50pm 12 29 mph 1025mb 48f
1:50pm 13 30 mph 1025mb 48f
12:50pm 17 37 mph 1025mb 50f
11:50am 16 28 mph 1026mb 48f
10:50am 8 22 mph 1026mb 48f
9:50am 10 25 mph 1025mb 48f
8:50am 7 25 mph 1025mb 46f